createdAt,value
2018-04-24T00:00:18.502Z,3.00
2018-04-24T00:01:57.037Z,3.00
2018-04-24T00:03:35.125Z,3.00
2018-04-24T00:05:12.281Z,2.50
2018-04-24T00:06:49.713Z,2.75
2018-04-24T00:08:27.820Z,3.00
2018-04-24T00:10:05.492Z,2.00
2018-04-24T00:11:43.032Z,2.50
2018-04-24T00:13:20.553Z,1.75
2018-04-24T00:14:59.315Z,2.25
2018-04-24T00:16:36.708Z,2.75
2018-04-24T00:18:13.988Z,2.25
2018-04-24T00:19:51.121Z,2.00
2018-04-24T00:21:28.872Z,2.00
2018-04-24T00:23:06.108Z,2.00
2018-04-24T00:24:43.995Z,2.00
2018-04-24T00:26:21.152Z,2.00
2018-04-24T00:27:58.762Z,2.25
2018-04-24T00:29:35.957Z,2.00
2018-04-24T00:31:13.730Z,2.50
2018-04-24T00:32:50.881Z,10.25
2018-04-24T00:34:28.581Z,2.00
2018-04-24T00:36:05.897Z,2.75
2018-04-24T00:37:43.074Z,2.75
2018-04-24T00:39:20.231Z,3.00
2018-04-24T00:40:58.491Z,2.25
2018-04-24T00:42:35.578Z,2.50
2018-04-24T00:44:12.781Z,3.00
2018-04-24T00:45:50.621Z,3.75
2018-04-24T00:47:28.215Z,4.00
2018-04-24T00:49:05.447Z,3.00
2018-04-24T00:50:42.602Z,3.00
2018-04-24T00:52:19.697Z,3.00
2018-04-24T00:53:57.409Z,4.00
2018-04-24T00:55:34.536Z,3.00
2018-04-24T00:57:13.413Z,3.00
2018-04-24T00:58:51.489Z,4.00
2018-04-24T01:00:30.477Z,4.00
2018-04-24T01:02:07.712Z,3.00
2018-04-24T01:03:45.605Z,4.00
2018-04-24T01:05:22.853Z,2.25
2018-04-24T01:07:00.675Z,2.00
2018-04-24T01:08:38.549Z,3.00
2018-04-24T01:10:15.858Z,2.00
2018-04-24T01:11:53.077Z,2.00
2018-04-24T01:13:30.873Z,3.00
2018-04-24T01:15:08.195Z,2.00
2018-04-24T01:16:45.453Z,3.00
2018-04-24T01:18:23.457Z,2.00
2018-04-24T01:20:00.734Z,2.00
2018-04-24T01:21:37.927Z,2.00
2018-04-24T01:23:15.749Z,1.75
2018-04-24T01:24:52.938Z,2.00
2018-04-24T01:26:30.557Z,1.00
2018-04-24T01:28:08.240Z,2.00
2018-04-24T01:29:45.358Z,2.00
2018-04-24T01:31:22.490Z,2.50
2018-04-24T01:33:00.099Z,2.00
2018-04-24T01:34:37.266Z,2.00
2018-04-24T01:36:15.138Z,2.00
2018-04-24T01:37:52.380Z,2.00
2018-04-24T01:39:29.866Z,2.50
2018-04-24T01:41:07.008Z,2.75
2018-04-24T01:42:46.511Z,2.25
2018-04-24T01:44:23.670Z,3.00
2018-04-24T01:46:01.226Z,3.00
2018-04-24T01:47:39.179Z,2.25
2018-04-24T01:49:16.308Z,2.00
2018-04-24T01:50:53.435Z,2.00
2018-04-24T01:52:31.110Z,1.00
2018-04-24T01:54:08.241Z,2.50
2018-04-24T01:55:45.337Z,1.75
2018-04-24T01:57:23.290Z,2.00
2018-04-24T01:59:00.693Z,2.00
2018-04-24T02:00:37.735Z,2.50
2018-04-24T02:02:14.881Z,3.25
2018-04-24T02:03:52.746Z,2.00
2018-04-24T02:05:30.219Z,4.00
2018-04-24T02:07:08.299Z,3.00
2018-04-24T02:08:45.413Z,3.00
2018-04-24T02:10:22.649Z,2.00
2018-04-24T02:12:00.105Z,3.00
2018-04-24T02:13:38.058Z,3.00
2018-04-24T02:15:17.053Z,2.25
2018-04-24T02:16:54.231Z,3.00
2018-04-24T02:18:32.095Z,3.00
2018-04-24T02:20:10.111Z,3.00
2018-04-24T02:21:47.235Z,3.00
2018-04-24T02:23:24.362Z,2.25
2018-04-24T02:25:01.808Z,3.00
2018-04-24T02:26:38.946Z,2.00
2018-04-24T02:28:16.085Z,2.00
2018-04-24T02:29:53.161Z,3.00
2018-04-24T02:31:30.744Z,2.25
2018-04-24T02:33:09.968Z,3.00
2018-04-24T02:34:48.272Z,3.00
2018-04-24T02:36:25.894Z,2.00
2018-04-24T02:38:03.685Z,3.50
2018-04-24T02:39:41.315Z,2.00
2018-04-24T02:41:18.808Z,3.50
2018-04-24T02:42:56.399Z,3.50
2018-04-24T02:44:34.406Z,3.00
2018-04-24T02:46:12.011Z,3.00
2018-04-24T02:47:49.583Z,2.00
2018-04-24T02:49:27.100Z,3.75
2018-04-24T02:51:05.032Z,4.00
2018-04-24T02:52:42.608Z,2.50
2018-04-24T02:54:20.185Z,2.75
2018-04-24T02:55:57.728Z,4.00
2018-04-24T02:57:35.853Z,3.00
2018-04-24T02:59:14.215Z,4.00
2018-04-24T03:00:51.753Z,3.00
2018-04-24T03:02:30.209Z,4.00
2018-04-24T03:04:08.148Z,4.00
2018-04-24T03:05:45.932Z,3.00
2018-04-24T03:07:23.840Z,3.75
2018-04-24T03:09:01.474Z,3.00
2018-04-24T03:10:39.419Z,3.50
2018-04-24T03:12:16.925Z,3.00
2018-04-24T03:13:54.679Z,5.00
2018-04-24T03:15:32.426Z,5.00
2018-04-24T03:17:10.079Z,3.50
2018-04-24T03:18:47.567Z,4.00
2018-04-24T03:20:25.220Z,3.00
2018-04-24T03:22:03.578Z,3.25
2018-04-24T03:23:41.673Z,5.00
2018-04-24T03:25:19.251Z,4.00
2018-04-24T03:26:56.897Z,4.00
2018-04-24T03:28:35.245Z,4.00
2018-04-24T03:30:14.237Z,4.00
2018-04-24T03:31:52.507Z,4.00
2018-04-24T03:33:30.696Z,3.00
2018-04-24T03:35:09.239Z,3.25
2018-04-24T03:36:48.306Z,5.00
2018-04-24T03:38:25.866Z,4.25
2018-04-24T03:40:03.775Z,3.50
2018-04-24T03:41:41.324Z,4.50
2018-04-24T03:43:18.849Z,4.25
2018-04-24T03:44:56.808Z,4.75
2018-04-24T03:46:34.429Z,4.00
2018-04-24T03:48:13.073Z,4.75
2018-04-24T03:49:50.586Z,4.50
2018-04-24T03:51:28.541Z,5.75
2018-04-24T03:53:06.807Z,4.25
2018-04-24T03:54:44.392Z,5.75
2018-04-24T03:56:21.980Z,4.75
2018-04-24T03:58:00.359Z,6.50
2018-04-24T03:59:38.037Z,5.75
2018-04-24T04:01:16.754Z,5.75
2018-04-24T04:02:55.241Z,4.50
2018-04-24T04:04:32.874Z,5.25
2018-04-24T04:06:11.791Z,6.00
2018-04-24T04:07:49.392Z,6.00
2018-04-24T04:09:26.923Z,7.00
2018-04-24T04:11:05.122Z,5.00
2018-04-24T04:12:42.704Z,6.50
2018-04-24T04:14:20.337Z,6.75
2018-04-24T04:15:58.463Z,4.00
2018-04-24T04:19:56.846Z,6.50
2018-04-24T04:24:48.451Z,6.00
2018-04-24T04:26:26.033Z,5.50
2018-04-24T04:28:03.611Z,4.50
2018-04-24T04:29:42.011Z,6.75
2018-04-24T04:31:20.115Z,6.75
2018-04-24T04:32:57.878Z,5.50
2018-04-24T04:34:36.088Z,6.00
2018-04-24T04:36:14.119Z,5.00
2018-04-24T04:37:51.829Z,3.50
2018-04-24T04:39:30.161Z,5.50
2018-04-24T04:41:08.221Z,6.00
2018-04-24T04:42:45.776Z,4.25
2018-04-24T04:44:23.376Z,4.00
2018-04-24T04:46:01.299Z,4.00
2018-04-24T04:47:39.181Z,5.50
2018-04-24T04:49:18.261Z,5.25
2018-04-24T04:50:55.902Z,4.00
2018-04-24T04:52:33.862Z,4.50
2018-04-24T04:54:12.223Z,4.75
2018-04-24T04:55:50.265Z,4.00
2018-04-24T04:57:27.816Z,5.25
2018-04-24T04:59:05.880Z,4.00
2018-04-24T05:00:43.750Z,4.00
2018-04-24T05:02:21.252Z,4.00
2018-04-24T05:03:59.061Z,3.75
2018-04-24T05:05:36.941Z,7.00
2018-04-24T05:07:14.545Z,5.00
2018-04-24T05:08:52.128Z,4.00
2018-04-24T05:10:29.779Z,4.00
2018-04-24T05:12:07.720Z,6.50
2018-04-24T05:13:45.202Z,4.00
2018-04-24T05:15:25.368Z,4.00
2018-04-24T05:17:03.629Z,4.00
2018-04-24T05:18:41.543Z,5.50
2018-04-24T05:20:19.113Z,4.75
2018-04-24T05:21:56.777Z,3.00
2018-04-24T05:23:35.179Z,4.50
2018-04-24T05:25:13.415Z,3.50
2018-04-24T05:26:50.953Z,4.75
2018-04-24T05:28:29.210Z,3.50
2018-04-24T05:30:06.944Z,3.25
2018-04-24T05:31:44.839Z,3.25
2018-04-24T05:33:22.339Z,3.75
2018-04-24T05:34:59.929Z,4.25
2018-04-24T05:36:38.497Z,3.00
2018-04-24T05:38:16.061Z,4.00
2018-04-24T05:39:54.454Z,3.50
2018-04-24T05:41:32.774Z,4.00
2018-04-24T05:43:11.073Z,3.50
2018-04-24T05:44:48.693Z,3.00
2018-04-24T05:46:26.669Z,3.75
2018-04-24T05:48:04.306Z,3.25
2018-04-24T05:49:44.509Z,4.00
2018-04-24T05:51:22.949Z,3.00
2018-04-24T05:53:00.654Z,2.25
2018-04-24T05:54:38.237Z,4.25
2018-04-24T05:56:16.910Z,4.00
2018-04-24T05:57:55.308Z,4.00
2018-04-24T05:59:32.872Z,4.25
2018-04-24T06:01:10.759Z,3.25
2018-04-24T06:02:49.082Z,4.00
2018-04-24T06:04:26.598Z,3.75
2018-04-24T06:06:04.279Z,4.25
2018-04-24T06:07:42.591Z,3.75
2018-04-24T06:09:20.526Z,3.25
2018-04-24T06:10:58.033Z,3.00
2018-04-24T06:12:35.573Z,4.00
2018-04-24T06:14:13.382Z,4.00
2018-04-24T06:15:52.416Z,16.25
2018-04-24T06:17:29.986Z,4.00
2018-04-24T06:19:08.425Z,3.00
2018-04-24T06:20:45.976Z,3.75
2018-04-24T06:22:25.976Z,2.75
2018-04-24T06:24:03.530Z,3.75
2018-04-24T06:25:41.076Z,3.00
2018-04-24T06:27:18.596Z,4.00
2018-04-24T06:28:56.581Z,4.00
2018-04-24T06:30:34.455Z,3.25
2018-04-24T06:32:11.975Z,4.00
2018-04-24T06:33:50.255Z,4.00
2018-04-24T06:35:28.171Z,5.00
2018-04-24T06:37:05.889Z,3.00
2018-04-24T06:38:44.230Z,4.00
2018-04-24T06:40:22.641Z,4.50
2018-04-24T06:42:00.627Z,4.00
2018-04-24T06:45:22.183Z,4.00
2018-04-24T06:47:00.044Z,3.00
2018-04-24T06:48:37.939Z,3.00
2018-04-24T06:50:15.563Z,4.75
2018-04-24T06:51:53.175Z,3.75
2018-04-24T06:53:30.831Z,3.00
2018-04-24T06:55:09.240Z,3.00
2018-04-24T06:56:46.925Z,5.00
2018-04-24T06:58:25.425Z,3.50
2018-04-24T07:00:04.368Z,4.00
2018-04-24T07:01:44.291Z,5.00
2018-04-24T07:03:21.923Z,4.50
2018-04-24T07:04:59.597Z,4.00
2018-04-24T07:06:37.937Z,4.00
2018-04-24T07:08:16.012Z,3.00
2018-04-24T07:09:53.553Z,3.00
2018-04-24T07:11:32.163Z,3.00
2018-04-24T07:13:10.895Z,5.00
2018-04-24T07:14:49.094Z,3.25
2018-04-24T07:16:28.098Z,5.25
2018-04-24T07:18:05.830Z,5.00
2018-04-24T07:19:43.731Z,4.25
2018-04-24T07:21:22.310Z,3.00
2018-04-24T07:23:01.218Z,4.00
2018-04-24T07:24:39.639Z,3.75
2018-04-24T07:26:17.271Z,4.00
2018-04-24T07:27:55.417Z,4.75
2018-04-24T07:29:33.281Z,3.25
2018-04-24T07:31:11.334Z,3.75
2018-04-24T07:32:49.017Z,4.00
2018-04-24T07:34:26.650Z,4.00
2018-04-24T07:36:05.022Z,4.00
2018-04-24T07:37:42.710Z,3.50
2018-04-24T07:39:20.293Z,4.75
2018-04-24T07:40:58.177Z,3.75
2018-04-24T07:42:36.208Z,3.00
2018-04-24T07:44:14.597Z,4.00
2018-04-24T07:45:52.729Z,4.25
2018-04-24T07:47:31.185Z,4.00
2018-04-24T07:49:09.025Z,3.50
2018-04-24T07:50:46.718Z,4.00
2018-04-24T07:52:24.939Z,3.00
2018-04-24T07:54:02.692Z,4.00
2018-04-24T07:55:40.417Z,3.50
2018-04-24T07:57:18.050Z,3.25
2018-04-24T07:58:56.899Z,4.75
2018-04-24T08:00:35.021Z,5.00
2018-04-24T08:02:12.811Z,3.75
2018-04-24T08:03:50.481Z,4.00
2018-04-24T08:05:29.640Z,4.75
2018-04-24T08:07:07.399Z,4.50
2018-04-24T08:08:45.263Z,5.75
2018-04-24T08:10:23.790Z,4.50
2018-04-24T08:12:02.047Z,3.75
2018-04-24T08:13:40.448Z,4.00
2018-04-24T08:15:18.746Z,4.75
2018-04-24T08:16:56.505Z,4.00
2018-04-24T08:18:35.335Z,5.50
2018-04-24T08:20:13.022Z,5.00
2018-04-24T08:21:51.743Z,3.00
2018-04-24T08:23:29.378Z,6.75
2018-04-24T08:25:07.253Z,4.25
2018-04-24T08:26:44.842Z,7.50
2018-04-24T08:28:23.604Z,5.00
2018-04-24T08:30:01.757Z,4.75
2018-04-24T08:31:40.957Z,4.75
2018-04-24T08:33:19.557Z,5.25
2018-04-24T08:34:57.149Z,5.25
2018-04-24T08:36:35.562Z,5.50
2018-04-24T08:38:13.655Z,5.75
2018-04-24T08:39:52.044Z,5.25
2018-04-24T08:41:29.657Z,5.75
2018-04-24T08:43:07.405Z,6.00
2018-04-24T08:44:45.373Z,6.00
2018-04-24T08:46:24.167Z,5.75
2018-04-24T08:48:03.776Z,6.00
2018-04-24T08:49:41.472Z,4.50
2018-04-24T08:51:19.689Z,8.25
2018-04-24T08:52:57.340Z,5.00
2018-04-24T08:54:35.016Z,6.75
2018-04-24T08:56:12.748Z,9.25
2018-04-24T08:57:51.040Z,7.50
2018-04-24T08:59:28.601Z,6.25
2018-04-24T09:01:06.835Z,7.50
2018-04-24T09:02:44.510Z,7.75
2018-04-24T09:04:22.759Z,8.00
2018-04-24T09:06:00.521Z,9.00
2018-04-24T09:07:38.119Z,8.50
2018-04-24T09:09:15.822Z,7.00
2018-04-24T09:10:53.892Z,9.00
2018-04-24T09:12:31.644Z,8.00
2018-04-24T09:14:09.443Z,7.50
2018-04-24T09:15:47.543Z,7.00
2018-04-24T09:17:26.703Z,6.00
2018-04-24T09:19:04.376Z,8.00
2018-04-24T09:20:42.029Z,5.50
2018-04-24T09:22:19.686Z,8.00
2018-04-24T09:23:57.779Z,7.75
2018-04-24T09:25:35.390Z,8.75
2018-04-24T09:27:13.072Z,8.00
2018-04-24T09:28:50.662Z,5.00
2018-04-24T09:30:28.717Z,9.00
2018-04-24T09:32:07.361Z,7.75
2018-04-24T09:33:45.915Z,7.75
2018-04-24T09:35:27.814Z,6.50
2018-04-24T09:37:06.960Z,11.00
2018-04-24T09:38:45.019Z,8.25
2018-04-24T09:40:22.721Z,9.75
2018-04-24T09:42:00.345Z,6.00
2018-04-24T09:43:38.467Z,9.25
2018-04-24T09:45:17.489Z,7.75
2018-04-24T09:46:55.110Z,6.00
2018-04-24T09:48:32.823Z,9.50
2018-04-24T09:50:13.460Z,9.25
2018-04-24T09:51:51.696Z,10.25
2018-04-24T09:53:29.454Z,8.00
2018-04-24T09:55:07.836Z,18.50
2018-04-24T09:58:18.843Z,10.00
2018-04-24T09:59:56.483Z,10.75
2018-04-24T10:01:35.242Z,11.00
2018-04-24T10:03:13.117Z,11.00
2018-04-24T10:04:50.721Z,10.00
2018-04-24T10:06:29.127Z,11.00
2018-04-24T10:08:06.877Z,11.75
2018-04-24T10:09:45.286Z,12.00
2018-04-24T10:11:22.985Z,10.00
2018-04-24T10:13:02.337Z,10.75
2018-04-24T10:14:39.991Z,11.00
2018-04-24T10:16:21.900Z,10.50
2018-04-24T10:18:00.232Z,10.00
2018-04-24T10:19:37.737Z,9.00
2018-04-24T10:21:15.277Z,10.00
2018-04-24T10:22:54.236Z,9.75
2018-04-24T10:24:31.807Z,11.00
2018-04-24T10:26:10.160Z,10.00
2018-04-24T10:27:47.762Z,11.50
2018-04-24T10:29:25.386Z,10.75
2018-04-24T10:31:03.954Z,11.00
2018-04-24T10:32:41.529Z,10.75
2018-04-24T10:34:19.472Z,12.75
2018-04-24T10:35:57.331Z,11.00
2018-04-24T10:37:35.002Z,11.00
2018-04-24T10:39:12.648Z,11.75
2018-04-24T10:40:51.321Z,14.75
2018-04-24T10:42:28.886Z,14.25
2018-04-24T10:44:07.186Z,11.00
2018-04-24T10:45:45.884Z,10.00
2018-04-24T10:47:24.739Z,12.50
2018-04-24T10:49:02.320Z,12.00
2018-04-24T10:50:40.029Z,12.00
2018-04-24T10:52:17.638Z,12.25
2018-04-24T10:53:55.838Z,8.75
2018-04-24T10:55:33.456Z,11.75
2018-04-24T10:57:11.496Z,12.00
2018-04-24T10:58:49.220Z,13.00
2018-04-24T11:00:30.289Z,11.75
2018-04-24T11:02:07.856Z,11.00
2018-04-24T11:03:46.241Z,10.75
2018-04-24T11:05:23.790Z,12.00
2018-04-24T11:07:01.829Z,11.00
2018-04-24T11:08:39.370Z,11.25
2018-04-24T11:10:17.133Z,11.00
2018-04-24T11:11:55.869Z,11.50
2018-04-24T11:13:34.413Z,11.00
2018-04-24T11:15:12.548Z,11.50
2018-04-24T11:16:51.248Z,12.75
2018-04-24T11:18:29.042Z,11.25
2018-04-24T11:20:06.684Z,11.50
2018-04-24T11:21:45.456Z,12.50
2018-04-24T11:23:23.030Z,13.00
2018-04-24T11:25:00.970Z,12.00
2018-04-24T11:26:38.603Z,15.50
2018-04-24T11:28:16.183Z,11.50
2018-04-24T11:29:54.238Z,12.00
2018-04-24T11:31:33.587Z,8.75
2018-04-24T11:33:11.265Z,11.75
2018-04-24T11:34:48.910Z,8.50
2018-04-24T11:36:26.540Z,10.75
2018-04-24T11:38:04.417Z,11.50
2018-04-24T11:39:42.771Z,11.25
2018-04-24T11:41:20.392Z,9.50
2018-04-24T11:42:57.957Z,12.75
2018-04-24T11:44:36.519Z,12.00
2018-04-24T11:46:14.233Z,10.75
2018-04-24T11:47:51.891Z,13.75
2018-04-24T11:49:29.438Z,12.25
2018-04-24T11:51:07.444Z,10.50
2018-04-24T11:52:45.062Z,11.00
2018-04-24T11:54:22.555Z,14.50
2018-04-24T11:56:00.102Z,10.75
2018-04-24T11:57:38.839Z,15.25
2018-04-24T11:59:17.185Z,12.25
2018-04-24T12:00:54.791Z,14.50
2018-04-24T12:02:32.451Z,14.25
2018-04-24T12:04:11.392Z,13.75
2018-04-24T12:05:49.205Z,13.25
2018-04-24T12:07:26.785Z,11.50
2018-04-24T12:09:04.751Z,13.25
2018-04-24T12:10:43.659Z,12.50
2018-04-24T12:12:22.850Z,12.25
2018-04-24T12:14:00.587Z,13.50
2018-04-24T12:15:38.395Z,16.25
2018-04-24T12:17:16.527Z,11.00
2018-04-24T12:18:54.260Z,14.25
2018-04-24T12:20:31.929Z,16.75
2018-04-24T12:22:09.633Z,13.25
2018-04-24T12:23:47.641Z,13.25
2018-04-24T12:25:26.045Z,13.75
2018-04-24T12:27:03.669Z,14.75
2018-04-24T12:28:41.337Z,15.00
2018-04-24T12:30:24.266Z,16.50
2018-04-24T12:32:01.867Z,16.00
2018-04-24T12:33:40.216Z,14.75
2018-04-24T12:35:18.225Z,12.25
2018-04-24T12:36:56.873Z,14.25
2018-04-24T12:38:34.980Z,15.00
2018-04-24T12:40:12.656Z,15.75
2018-04-24T12:41:50.872Z,16.75
2018-04-24T12:43:28.534Z,18.25
2018-04-24T12:45:06.329Z,17.00
2018-04-24T12:46:44.495Z,16.25
2018-04-24T12:48:23.725Z,17.25
2018-04-24T12:50:03.043Z,18.00
2018-04-24T12:51:41.031Z,16.00
2018-04-24T12:53:18.716Z,16.50
2018-04-24T12:54:56.807Z,16.00
2018-04-24T12:56:34.483Z,19.50
2018-04-24T12:58:12.121Z,17.00
2018-04-24T12:59:49.935Z,17.25
2018-04-24T13:01:27.974Z,18.00
2018-04-24T13:03:06.613Z,21.75
2018-04-24T13:04:44.553Z,20.25
2018-04-24T13:06:22.241Z,17.50
2018-04-24T13:08:02.152Z,22.00
2018-04-24T13:09:40.554Z,17.75
2018-04-24T13:11:18.160Z,17.50
2018-04-24T13:12:55.910Z,20.00
2018-04-24T13:14:33.472Z,18.75
2018-04-24T13:16:14.540Z,18.00
2018-04-24T13:17:52.213Z,15.50
2018-04-24T13:19:29.829Z,17.00
2018-04-24T13:21:08.332Z,15.75
2018-04-24T13:22:45.948Z,19.00
2018-04-24T13:24:25.389Z,15.75
2018-04-24T13:26:04.337Z,18.75
2018-04-24T13:27:41.906Z,18.75
2018-04-24T13:29:19.787Z,18.75
2018-04-24T13:30:58.150Z,19.00
2018-04-24T13:32:36.962Z,17.50
2018-04-24T13:34:14.649Z,18.50
2018-04-24T13:35:52.239Z,16.00
2018-04-24T13:37:29.933Z,18.00
2018-04-24T13:39:08.443Z,19.50
2018-04-24T13:40:47.019Z,20.50
2018-04-24T13:42:24.847Z,18.50
2018-04-24T13:44:02.409Z,18.25
2018-04-24T13:45:40.692Z,19.75
2018-04-24T13:47:18.820Z,17.00
2018-04-24T13:48:56.511Z,19.75
2018-04-24T13:50:34.194Z,19.25
2018-04-24T13:52:13.217Z,20.50
2018-04-24T13:53:50.948Z,17.75
2018-04-24T13:55:30.135Z,16.25
2018-04-24T13:57:07.963Z,17.75
2018-04-24T13:58:47.707Z,17.75
2018-04-24T14:00:29.488Z,17.00
2018-04-24T14:02:07.490Z,16.75
2018-04-24T14:03:45.279Z,19.25
2018-04-24T14:05:22.960Z,19.50
2018-04-24T14:07:00.623Z,19.25
2018-04-24T14:08:39.105Z,14.00
2018-04-24T14:10:17.214Z,19.50
2018-04-24T14:11:55.203Z,18.50
2018-04-24T14:13:34.335Z,19.50
2018-04-24T14:15:15.985Z,19.25
2018-04-24T14:17:05.027Z,17.50
2018-04-24T14:18:43.584Z,18.75
2018-04-24T14:20:22.235Z,17.75
2018-04-24T14:21:59.870Z,17.75
2018-04-24T14:23:37.960Z,17.50
2018-04-24T14:25:15.585Z,19.00
2018-04-24T14:26:53.402Z,18.75
2018-04-24T14:28:30.983Z,18.25
2018-04-24T14:31:53.222Z,15.25
2018-04-24T14:33:30.989Z,18.50
2018-04-24T14:35:08.791Z,14.75
2018-04-24T14:36:48.052Z,19.75
2018-04-24T14:38:26.533Z,16.00
2018-04-24T14:40:04.526Z,20.00
2018-04-24T14:41:43.176Z,18.75
2018-04-24T14:43:22.053Z,19.00
2018-04-24T14:44:59.811Z,17.50
2018-04-24T14:46:38.442Z,18.00
2018-04-24T14:48:16.210Z,20.00
2018-04-24T14:49:55.079Z,17.50
2018-04-24T14:51:32.835Z,18.50
2018-04-24T14:53:10.718Z,18.00
2018-04-24T14:54:49.191Z,14.25
2018-04-24T14:56:28.535Z,16.75
2018-04-24T14:58:07.170Z,16.25
2018-04-24T14:59:44.988Z,15.00
2018-04-24T15:01:23.745Z,16.75
2018-04-24T15:03:01.988Z,18.00
2018-04-24T15:04:39.682Z,19.25
2018-04-24T15:06:17.509Z,17.50
2018-04-24T15:07:55.527Z,18.75
2018-04-24T15:09:33.554Z,15.50
2018-04-24T15:11:11.501Z,19.75
2018-04-24T15:12:49.332Z,16.50
2018-04-24T15:14:27.088Z,18.25
2018-04-24T15:16:05.844Z,17.25
2018-04-24T15:17:44.655Z,19.00
2018-04-24T15:19:29.005Z,16.75
2018-04-24T15:21:16.271Z,18.50
2018-04-24T15:22:54.553Z,20.00
2018-04-24T15:24:32.408Z,17.50
2018-04-24T15:26:15.305Z,19.75
2018-04-24T15:27:53.562Z,18.00
2018-04-24T15:29:31.869Z,17.25
2018-04-24T15:31:10.688Z,19.00
2018-04-24T15:32:49.708Z,15.75
2018-04-24T15:34:28.111Z,16.50
2018-04-24T15:36:06.620Z,18.25
2018-04-24T15:37:45.086Z,15.75
2018-04-24T15:39:23.498Z,17.00
2018-04-24T15:41:01.446Z,16.50
2018-04-24T15:42:39.163Z,17.75
2018-04-24T15:44:17.939Z,15.00
2018-04-24T15:45:56.905Z,16.00
2018-04-24T15:47:34.661Z,15.75
2018-04-24T15:49:13.456Z,16.25
2018-04-24T15:50:52.111Z,16.50
2018-04-24T15:54:34.848Z,15.25
2018-04-24T15:56:12.624Z,17.00
2018-04-24T15:58:12.256Z,14.50
2018-04-24T15:59:50.491Z,15.50
2018-04-24T16:01:28.836Z,16.75
2018-04-24T16:03:07.779Z,14.00
2018-04-24T16:04:46.257Z,14.00
2018-04-24T16:06:24.284Z,15.25
2018-04-24T16:08:02.090Z,12.75
2018-04-24T16:09:42.031Z,20.00
2018-04-24T16:11:22.887Z,15.00
2018-04-24T16:13:02.200Z,15.50
2018-04-24T16:14:41.103Z,17.50
2018-04-24T16:16:19.636Z,15.25
2018-04-24T16:17:57.591Z,14.00
2018-04-24T16:19:35.491Z,13.25
2018-04-24T16:21:13.539Z,15.75
2018-04-24T16:22:51.760Z,14.75
2018-04-24T16:24:30.855Z,14.00
2018-04-24T16:26:08.829Z,14.00
2018-04-24T16:27:46.516Z,17.00
2018-04-24T16:29:24.249Z,14.75
2018-04-24T16:31:04.142Z,12.00
2018-04-24T16:34:46.761Z,11.75
2018-04-24T16:36:24.873Z,14.75
2018-04-24T16:38:02.681Z,14.25
2018-04-24T16:39:41.456Z,14.25
2018-04-24T16:41:19.054Z,12.75
2018-04-24T16:42:56.843Z,12.75
2018-04-24T16:44:34.113Z,15.50
2018-04-24T16:46:12.850Z,12.50
2018-04-24T16:47:50.692Z,12.00
2018-04-24T16:49:28.077Z,12.75
2018-04-24T16:51:06.095Z,13.00
2018-04-24T16:52:44.808Z,14.25
2018-04-24T16:54:22.198Z,14.50
2018-04-24T16:56:00.059Z,14.25
2018-04-24T16:57:38.128Z,12.75
2018-04-24T16:59:16.963Z,15.00
2018-04-24T17:00:54.109Z,16.25
2018-04-24T17:02:31.889Z,14.00
2018-04-24T17:04:11.709Z,13.00
2018-04-24T17:05:51.490Z,16.75
2018-04-24T17:07:29.368Z,16.00
2018-04-24T17:09:07.989Z,16.75
2018-04-24T17:10:46.733Z,15.25
2018-04-24T17:12:24.866Z,16.00
2018-04-24T17:14:02.634Z,12.75
2018-04-24T17:15:40.434Z,15.00
2018-04-24T17:18:59.763Z,16.25
2018-04-24T17:20:37.746Z,15.50
2018-04-24T17:22:16.925Z,15.25
2018-04-24T17:23:58.893Z,17.75
2018-04-24T17:25:36.877Z,14.00
2018-04-24T17:27:14.657Z,14.75
2018-04-24T17:28:52.537Z,13.25
2018-04-24T17:32:07.572Z,14.50
2018-04-24T17:33:47.018Z,15.00
2018-04-24T17:35:24.968Z,15.25
2018-04-24T17:37:03.777Z,15.25
2018-04-24T17:38:41.621Z,15.75
2018-04-24T17:40:19.475Z,13.25
2018-04-24T17:41:57.380Z,15.00
2018-04-24T17:43:35.172Z,15.75
2018-04-24T17:45:15.286Z,14.50
2018-04-24T17:46:52.328Z,15.00
2018-04-24T17:48:30.269Z,14.50
2018-04-24T17:50:14.503Z,15.75
2018-04-24T17:51:52.758Z,18.75
2018-04-24T17:53:31.424Z,14.75
2018-04-24T17:55:08.419Z,14.00
2018-04-24T17:56:47.565Z,21.75
2018-04-24T17:58:26.082Z,16.00
2018-04-24T18:00:08.996Z,16.75
2018-04-24T18:01:51.042Z,16.25
2018-04-24T18:03:28.710Z,27.00
2018-04-24T18:05:07.168Z,15.00
2018-04-24T18:06:48.110Z,15.75
2018-04-24T18:08:32.463Z,19.00
2018-04-24T18:10:10.599Z,15.75
2018-04-24T18:11:52.670Z,12.25
2018-04-24T18:13:30.925Z,13.75
2018-04-24T18:15:07.798Z,16.75
2018-04-24T18:16:48.573Z,16.25
2018-04-24T18:18:28.851Z,14.75
2018-04-24T18:20:06.174Z,18.25
2018-04-24T18:21:44.651Z,17.25
2018-04-24T18:23:23.367Z,15.00
2018-04-24T18:25:01.726Z,16.50
2018-04-24T18:26:39.259Z,15.00
2018-04-24T18:28:17.122Z,12.50
2018-04-24T18:29:57.931Z,13.25
2018-04-24T18:31:42.449Z,12.75
2018-04-24T18:33:20.055Z,15.25
2018-04-24T18:34:57.266Z,15.00
2018-04-24T18:36:35.346Z,16.25
2018-04-24T18:38:13.241Z,14.00
2018-04-24T18:39:49.721Z,21.75
2018-04-24T18:41:27.515Z,13.25
2018-04-24T18:43:06.961Z,27.75
2018-04-24T18:44:44.717Z,19.50
2018-04-24T18:46:22.524Z,19.50
2018-04-24T18:47:59.489Z,16.50
2018-04-24T18:49:37.692Z,16.25
2018-04-24T18:51:15.152Z,16.25
2018-04-24T18:52:54.289Z,15.25
2018-04-24T18:54:32.270Z,15.00
2018-04-24T18:56:09.553Z,14.25
2018-04-24T18:57:52.192Z,13.75
2018-04-24T18:59:29.656Z,14.75
2018-04-24T19:01:08.147Z,16.00
2018-04-24T19:02:46.673Z,15.25
2018-04-24T19:04:25.078Z,16.75
2018-04-24T19:06:05.400Z,14.75
2018-04-24T19:07:43.146Z,18.75
2018-04-24T19:09:22.843Z,13.50
2018-04-24T19:11:06.640Z,20.25
2018-04-24T19:12:45.091Z,16.00
2018-04-24T19:14:26.315Z,13.25
2018-04-24T19:16:06.255Z,13.50
2018-04-24T19:17:44.176Z,12.75
2018-04-24T19:19:26.161Z,15.25
2018-04-24T19:21:04.441Z,17.00
2018-04-24T19:22:42.885Z,15.25
2018-04-24T19:24:23.870Z,18.00
2018-04-24T19:26:01.705Z,13.25
2018-04-24T19:27:39.516Z,14.00
2018-04-24T19:29:17.712Z,12.00
2018-04-24T19:30:55.693Z,16.25
2018-04-24T19:32:33.104Z,14.50
2018-04-24T19:34:11.794Z,14.00
2018-04-24T19:35:50.184Z,11.75
2018-04-24T19:37:29.725Z,11.50
2018-04-24T19:39:12.440Z,13.50
2018-04-24T19:41:59.753Z,12.50
2018-04-24T19:43:41.171Z,13.75
2018-04-24T19:45:19.236Z,13.00
2018-04-24T19:46:56.772Z,11.75
2018-04-24T19:48:38.600Z,12.75
2018-04-24T19:50:20.650Z,13.50
2018-04-24T19:52:00.250Z,11.00
2018-04-24T19:53:39.189Z,11.50
2018-04-24T19:55:23.362Z,11.25
2018-04-24T19:57:00.276Z,14.25
2018-04-24T19:58:38.084Z,49.00
2018-04-24T20:00:16.705Z,31.00
2018-04-24T20:01:54.711Z,20.00
2018-04-24T20:03:32.627Z,23.00
2018-04-24T20:05:11.354Z,9.75
2018-04-24T20:06:48.588Z,13.00
2018-04-24T20:08:26.131Z,13.50
2018-04-24T20:10:03.482Z,12.25
2018-04-24T20:11:48.305Z,14.00
2018-04-24T20:13:26.386Z,13.75
2018-04-24T20:15:06.760Z,15.75
2018-04-24T20:16:44.054Z,13.00
2018-04-24T20:18:22.500Z,15.25
2018-04-24T20:20:00.321Z,13.25
2018-04-24T20:21:38.841Z,27.75
2018-04-24T20:23:16.481Z,13.25
2018-04-24T20:24:54.319Z,15.00
2018-04-24T20:26:32.883Z,16.00
2018-04-24T20:28:11.875Z,16.50
2018-04-24T20:29:50.901Z,56.75
2018-04-24T20:31:29.487Z,36.75
2018-04-24T20:33:06.746Z,14.50
2018-04-24T20:34:44.251Z,14.25
2018-04-24T20:36:21.929Z,12.25
2018-04-24T20:37:59.880Z,14.25
2018-04-24T20:39:37.154Z,13.00
2018-04-24T20:41:36.523Z,30.25
2018-04-24T20:43:13.640Z,15.75
2018-04-24T20:44:51.028Z,13.50
2018-04-24T20:46:29.506Z,14.00
2018-04-24T20:48:07.688Z,17.25
2018-04-24T20:49:44.845Z,16.00
2018-04-24T20:51:22.260Z,13.75
2018-04-24T20:53:01.348Z,19.75
2018-04-24T20:54:39.321Z,14.50
2018-04-24T20:56:18.396Z,64.00
2018-04-24T20:57:56.252Z,31.00
2018-04-24T20:59:33.849Z,20.00
2018-04-24T21:01:11.186Z,14.25
2018-04-24T21:02:48.827Z,20.75
2018-04-24T21:04:26.055Z,13.50
2018-04-24T21:06:03.008Z,13.00
2018-04-24T21:07:41.025Z,17.00
2018-04-24T21:09:18.209Z,15.25
2018-04-24T21:10:56.725Z,12.75
2018-04-24T21:12:35.453Z,14.25
2018-04-24T21:14:13.484Z,14.25
2018-04-24T21:15:50.892Z,17.00
2018-04-24T21:17:28.130Z,24.00
2018-04-24T21:19:06.595Z,15.00
2018-04-24T21:20:46.518Z,14.50
2018-04-24T21:22:23.861Z,15.25
2018-04-24T21:24:00.842Z,16.75
2018-04-24T21:25:38.323Z,14.75
2018-04-24T21:27:16.991Z,14.00
2018-04-24T21:28:54.739Z,15.75
2018-04-24T21:30:32.116Z,14.75
2018-04-24T21:32:10.176Z,17.75
2018-04-24T21:33:47.675Z,15.00
2018-04-24T21:35:26.523Z,15.25
2018-04-24T21:37:04.568Z,14.50
2018-04-24T21:38:41.938Z,17.25
2018-04-24T21:40:19.096Z,14.00
2018-04-24T21:41:56.988Z,15.50
2018-04-24T21:43:34.112Z,17.50